Time;durP1;ratioP1;P1;durP2;ratioP2;P2;SDS_P1;SDS_P2;PMS_P1;PMS_P2;Temp;Humidity;BMP_temperature;BMP_pressure;BME280_temperature;BME280_humidity;BME280_pressure;Samples;Min_cycle;Max_cycle;Signal;HPM_P1;HPM_P2
2021/01/08 00:01:10;;;;;;;47.75;25.75;;;;;;;1.46;87.37;100218.50;1792492;78;25773;-86
2021/01/08 00:03:40;;;;;;;49.38;26.02;;;;;;;1.45;87.26;100216.82;1716128;79;25884;-86
2021/01/08 00:06:07;;;;;;;49.13;26.40;;;;;;;1.46;87.32;100222.94;1742804;78;26435;-86
2021/01/08 00:08:34;;;;;;;53.25;27.52;;;;;;;1.46;87.32;100221.14;1767285;78;25866;-86
2021/01/08 00:11:02;;;;;;;51.23;27.20;;;;;;;1.46;87.28;100225.58;1794349;78;26698;-87
2021/01/08 00:13:29;;;;;;;50.10;26.75;;;;;;;1.44;87.37;100221.77;1723836;78;25806;-86
2021/01/08 00:15:56;;;;;;;53.95;27.70;;;;;;;1.44;87.48;100219.13;1736664;78;25956;-86
2021/01/08 00:18:24;;;;;;;49.20;28.05;;;;;;;1.47;87.49;100216.70;1751231;78;26520;-86
2021/01/08 00:20:51;;;;;;;52.40;27.32;;;;;;;1.47;87.43;100208.78;1766887;78;25982;-86
2021/01/08 00:23:19;;;;;;;47.93;25.60;;;;;;;1.49;87.47;100208.16;1734322;78;28636;-86
2021/01/08 00:25:51;;;;;;;49.40;25.85;;;;;;;1.47;87.32;100214.06;1747902;79;26117;-86
2021/01/08 00:28:18;;;;;;;53.80;27.67;;;;;;;1.45;87.36;100213.37;1763455;79;25358;-86
2021/01/08 00:30:46;;;;;;;47.05;25.50;;;;;;;1.41;87.34;100212.80;1738135;80;26447;-86
2021/01/08 00:33:13;;;;;;;53.92;29.12;;;;;;;1.40;87.42;100216.42;1706304;80;25841;-86
2021/01/08 00:35:40;;;;;;;52.15;27.90;;;;;;;1.41;87.52;100218.07;1725320;79;27534;-86
2021/01/08 00:38:08;;;;;;;52.38;28.75;;;;;;;1.41;87.54;100218.07;1762976;80;25728;-86
2021/01/08 00:40:35;;;;;;;46.58;25.70;;;;;;;1.41;87.54;100212.80;1767386;78;25885;-85
2021/01/08 00:43:05;;;;;;;46.98;24.27;;;;;;;1.43;87.58;100216.13;1720813;78;25443;-85
2021/01/08 00:45:32;;;;;;;46.70;25.20;;;;;;;1.43;87.50;100214.80;1755424;80;25455;-86
2021/01/08 00:48:00;;;;;;;50.25;27.82;;;;;;;1.43;87.50;100218.77;1758771;79;27312;-85
2021/01/08 00:50:27;;;;;;;55.73;30.27;;;;;;;1.42;87.52;100216.27;1793141;78;26002;-86
2021/01/08 00:52:55;;;;;;;46.05;25.45;;;;;;;1.40;87.46;100217.73;1720409;78;25765;-85
2021/01/08 00:55:23;;;;;;;44.67;24.57;;;;;;;1.40;87.50;100223.50;1739155;80;25579;-86
2021/01/08 00:58:00;;;;;;;51.75;27.73;;;;;;;1.44;87.52;100223.56;1852995;76;25674;-87
2021/01/08 01:00:28;;;;;;;49.00;27.77;;;;;;;1.41;87.63;100218.58;1754931;78;25877;-86
2021/01/08 01:02:55;;;;;;;46.15;25.55;;;;;;;1.44;87.59;100219.61;1777294;78;28409;-85
2021/01/08 01:05:23;;;;;;;46.80;26.57;;;;;;;1.42;87.42;100221.55;1784755;78;25424;-86
2021/01/08 01:07:50;;;;;;;46.70;26.60;;;;;;;1.39;87.39;100213.93;1760658;78;25729;-86
2021/01/08 01:10:17;;;;;;;46.92;26.42;;;;;;;1.38;87.47;100218.36;1754240;78;25841;-85
2021/01/08 01:12:45;;;;;;;48.10;26.73;;;;;;;1.39;87.52;100213.42;1726155;80;25813;-86
2021/01/08 01:15:12;;;;;;;47.27;27.13;;;;;;;1.37;87.48;100217.16;1778811;80;27535;-86
2021/01/08 01:17:41;;;;;;;45.88;25.77;;;;;;;1.35;87.52;100217.78;1725760;81;26405;-86
2021/01/08 01:20:10;;;;;;;47.13;26.12;;;;;;;1.35;87.50;100219.10;1674311;82;25403;-84
2021/01/08 01:22:37;;;;;;;48.17;24.90;;;;;;;1.38;87.61;100222.80;1703529;81;26034;-85
2021/01/08 01:25:06;;;;;;;41.60;21.85;;;;;;;1.37;87.48;100220.64;1736381;81;25377;-86
2021/01/08 01:27:38;;;;;;;49.30;26.10;;;;;;;1.36;87.50;100218.98;1711045;80;27511;-87
2021/01/08 01:30:04;;;;;;;43.73;24.60;;;;;;;1.36;87.54;100215.03;1705615;81;26405;-86
2021/01/08 01:32:32;;;;;;;45.15;25.00;;;;;;;1.35;87.41;100213.34;1727298;82;25825;-86
2021/01/08 01:34:59;;;;;;;46.60;24.95;;;;;;;1.32;87.44;100209.69;1714628;81;25776;-85
2021/01/08 01:37:26;;;;;;;44.58;23.42;;;;;;;1.33;87.60;100206.53;1685345;82;25935;-86
2021/01/08 01:39:54;;;;;;;44.73;24.52;;;;;;;1.35;87.57;100212.51;1687034;82;27591;-86
2021/01/08 01:42:21;;;;;;;48.58;28.20;;;;;;;1.35;87.47;100209.87;1712919;81;25996;-86
2021/01/08 01:44:48;;;;;;;45.15;26.45;;;;;;;1.36;87.55;100212.39;1771277;80;26309;-86
2021/01/08 01:47:16;;;;;;;43.42;23.07;;;;;;;1.37;87.56;100211.41;1717037;81;25843;-86
2021/01/08 01:49:43;;;;;;;40.88;22.45;;;;;;;1.37;87.44;100211.88;1671347;83;25436;-86
2021/01/08 01:52:10;;;;;;;48.25;24.92;;;;;;;1.37;87.34;100213.20;1726789;81;27277;-86
2021/01/08 01:54:38;;;;;;;44.88;24.87;;;;;;;1.34;87.28;100209.54;1761502;81;26107;-86
2021/01/08 01:57:05;;;;;;;43.40;24.70;;;;;;;1.34;87.41;100211.70;1712317;81;25836;-85
2021/01/08 01:59:33;;;;;;;47.27;25.40;;;;;;;1.34;87.25;100205.10;1735425;81;25962;-85
2021/01/08 02:02:05;;;;;;;48.52;25.27;;;;;;;1.35;87.40;100208.55;1730816;81;25904;-86
2021/01/08 02:04:33;;;;;;;42.93;22.60;;;;;;;1.38;87.33;100204.33;1754761;81;27521;-85
2021/01/08 02:07:02;;;;;;;40.15;22.05;;;;;;;1.35;87.13;100203.27;1729905;81;25785;-85
2021/01/08 02:09:30;;;;;;;41.60;22.35;;;;;;;1.32;87.16;100203.09;1699770;83;25451;-86
2021/01/08 02:11:59;;;;;;;43.80;24.18;;;;;;;1.30;87.20;100202.87;1719687;81;26481;-86
2021/01/08 02:14:29;;;;;;;47.33;25.72;;;;;;;1.31;87.22;100201.88;1754586;81;25811;-85
2021/01/08 02:17:01;;;;;;;45.88;23.52;;;;;;;1.31;87.23;100201.88;1708254;81;26892;-86
2021/01/08 02:19:40;;;;;;;44.90;24.25;;;;;;;1.31;87.19;100201.88;1727721;81;25959;-86
2021/01/08 02:22:37;;;;;;;39.80;22.07;;;;;;;1.33;87.22;100202.58;1727387;81;26223;-86
2021/01/08 02:25:21;;;;;;;44.75;24.57;;;;;;;1.30;87.24;100199.75;1731943;81;25871;-86
2021/01/08 02:28:16;;;;;;;39.83;20.32;;;;;;;1.33;87.28;100197.30;1678751;81;25912;-85
2021/01/08 02:30:45;;;;;;;41.28;21.25;;;;;;;1.35;87.17;100199.31;1735107;81;27316;-85
2021/01/08 02:33:14;;;;;;;45.33;24.85;;;;;;;1.32;87.02;100197.81;1737952;81;26436;-85
2021/01/08 02:35:44;;;;;;;42.58;23.60;;;;;;;1.31;87.10;100201.88;1706014;81;25945;-85
2021/01/08 02:38:14;;;;;;;41.85;23.35;;;;;;;1.29;87.16;100200.71;1737351;81;26299;-85
2021/01/08 02:40:45;;;;;;;48.45;24.63;;;;;;;1.30;87.18;100201.55;1705623;81;25940;-85
2021/01/08 02:43:16;;;;;;;47.15;23.92;;;;;;;1.32;87.19;100206.20;1724833;82;27523;-85
2021/01/08 02:45:43;;;;;;;42.13;22.55;;;;;;;1.30;87.05;100206.35;1710309;81;26461;-86
2021/01/08 02:48:11;;;;;;;36.35;19.32;;;;;;;1.28;87.08;100212.22;1726402;81;25454;-85
2021/01/08 02:50:38;;;;;;;44.30;23.90;;;;;;;1.28;87.13;100207.45;1735504;81;25786;-86
2021/01/08 02:53:11;;;;;;;45.73;23.83;;;;;;;1.28;87.17;100208.27;1734141;81;25789;-85
2021/01/08 02:55:47;;;;;;;34.83;18.70;;;;;;;1.32;87.21;100212.33;1654271;82;28261;-85
2021/01/08 02:58:14;;;;;;;35.20;20.43;;;;;;;1.34;87.07;100207.74;1723768;81;25839;-86
2021/01/08 03:00:43;;;;;;;39.63;21.42;;;;;;;1.33;86.94;100211.34;1720468;81;25823;-86
2021/01/08 03:03:11;;;;;;;37.13;18.98;;;;;;;1.35;87.03;100213.34;1747870;80;26028;-85
2021/01/08 03:05:39;;;;;;;38.95;21.62;;;;;;;1.38;87.03;100214.88;1728357;80;25765;-85
2021/01/08 03:08:06;;;;;;;41.40;23.05;;;;;;;1.39;86.99;100218.70;1729889;81;28195;-84
2021/01/08 03:10:33;;;;;;;41.00;22.02;;;;;;;1.40;86.91;100214.27;1712994;82;25798;-85
2021/01/08 03:13:06;;;;;;;39.03;18.98;;;;;;;1.42;86.83;100217.59;1748800;81;25375;-85
2021/01/08 03:15:34;;;;;;;39.92;21.55;;;;;;;1.39;86.66;100215.25;1683753;81;26028;-86
2021/01/08 03:18:01;;;;;;;39.90;19.17;;;;;;;1.36;86.54;100223.42;1742502;81;26135;-85
2021/01/08 03:20:28;;;;;;;36.15;19.52;;;;;;;1.34;86.60;100228.85;1716276;81;27305;-85
2021/01/08 03:22:56;;;;;;;38.65;20.12;;;;;;;1.32;86.56;100222.03;1716083;81;25419;-84
2021/01/08 03:25:23;;;;;;;37.40;19.50;;;;;;;1.34;86.73;100222.25;1729213;80;25836;-85
2021/01/08 03:27:51;;;;;;;37.48;20.92;;;;;;;1.36;86.55;100227.38;1730170;81;25795;-84
2021/01/08 03:30:19;;;;;;;40.75;20.02;;;;;;;1.35;86.62;100223.06;1724485;81;26494;-86
2021/01/08 03:32:47;;;;;;;45.78;21.57;;;;;;;1.37;86.66;100222.44;1719845;82;28385;-85
2021/01/08 03:35:14;;;;;;;40.60;21.82;;;;;;;1.34;86.55;100220.94;1728584;80;25678;-85
2021/01/08 03:37:42;;;;;;;37.20;18.82;;;;;;;1.36;86.71;100220.31;1753953;80;26484;-85
2021/01/08 03:40:10;;;;;;;35.28;18.98;;;;;;;1.36;86.45;100223.42;1763172;80;25797;-85
2021/01/08 03:42:37;;;;;;;38.10;19.57;;;;;;;1.32;86.35;100223.36;1741006;81;25821;-86
2021/01/08 03:45:06;;;;;;;38.92;21.00;;;;;;;1.30;86.49;100231.42;1689725;82;27530;-85
2021/01/08 03:47:33;;;;;;;35.98;18.98;;;;;;;1.29;86.51;100226.25;1719559;81;25739;-85
2021/01/08 03:50:01;;;;;;;38.38;20.92;;;;;;;1.29;86.49;100231.05;1723257;81;25870;-85
2021/01/08 03:52:28;;;;;;;34.78;19.80;;;;;;;1.31;86.54;100230.91;1758881;81;26331;-85
2021/01/08 03:54:55;;;;;;;32.73;19.32;;;;;;;1.30;86.47;100231.89;1662030;82;25819;-86
2021/01/08 03:57:23;;;;;;;36.70;20.35;;;;;;;1.29;86.41;100232.38;1716283;81;27815;-86
2021/01/08 03:59:50;;;;;;;36.48;19.75;;;;;;;1.28;86.43;100224.09;1685073;81;25885;-85
2021/01/08 04:02:18;;;;;;;35.13;20.35;;;;;;;1.29;86.49;100226.25;1744175;81;25810;-85
2021/01/08 04:04:45;;;;;;;33.90;18.23;;;;;;;1.26;86.35;100227.36;1679680;81;25909;-85
2021/01/08 04:07:12;;;;;;;36.42;19.98;;;;;;;1.24;86.41;100229.81;1716480;81;25920;-84
2021/01/08 04:09:40;;;;;;;32.35;17.40;;;;;;;1.24;86.53;100225.34;1713561;81;28461;-84
2021/01/08 04:12:08;;;;;;;36.28;18.67;;;;;;;1.25;86.61;100224.39;1741228;81;25711;-87
2021/01/08 04:14:35;;;;;;;37.75;19.80;;;;;;;1.24;86.50;100225.34;1665812;81;25841;-85
2021/01/08 04:17:02;;;;;;;33.58;18.27;;;;;;;1.27;86.63;100233.47;1687632;81;25692;-85
2021/01/08 04:19:30;;;;;;;37.80;20.68;;;;;;;1.24;86.37;100226.66;1709686;82;25373;-86
2021/01/08 04:21:57;;;;;;;39.48;18.80;;;;;;;1.22;86.41;100223.33;1724750;83;28560;-85
2021/01/08 04:24:25;;;;;;;33.75;18.67;;;;;;;1.24;86.51;100223.22;1694757;81;25885;-85
2021/01/08 04:26:53;;;;;;;29.65;15.90;;;;;;;1.23;86.46;100227.65;1684027;81;25809;-85
2021/01/08 04:29:20;;;;;;;36.10;19.05;;;;;;;1.22;86.23;100228.60;1705108;81;25912;-85
2021/01/08 04:31:48;;;;;;;30.85;17.15;;;;;;;1.18;86.29;100227.21;1709246;81;25601;-85
2021/01/08 04:34:15;;;;;;;34.88;17.65;;;;;;;1.18;86.40;100229.01;1742506;81;27532;-85
2021/01/08 04:36:42;;;;;;;38.63;19.85;;;;;;;1.16;86.46;100225.20;1680390;83;26502;-85
2021/01/08 04:39:10;;;;;;;36.98;18.67;;;;;;;1.18;86.46;100227.21;1718649;81;25829;-85
2021/01/08 04:41:38;;;;;;;30.65;16.50;;;;;;;1.18;86.38;100227.69;1717320;81;26551;-85
2021/01/08 04:44:06;;;;;;;36.70;19.52;;;;;;;1.16;86.41;100230.47;1730368;81;25803;-85
2021/01/08 04:46:36;;;;;;;40.75;19.45;;;;;;;1.15;86.46;100231.94;1678813;81;28240;-85
2021/01/08 04:49:08;;;;;;;38.35;18.95;;;;;;;1.16;86.44;100240.18;1721971;81;26167;-85
2021/01/08 04:51:37;;;;;;;33.02;18.23;;;;;;;1.14;86.39;100232.41;1741827;81;25933;-85
2021/01/08 04:54:05;;;;;;;36.03;18.42;;;;;;;1.14;86.37;100232.89;1742550;81;26358;-85
2021/01/08 04:56:46;;;;;;;38.33;18.50;;;;;;;1.13;86.39;100236.52;1686737;81;25840;-85
2021/01/08 04:59:13;;;;;;;36.25;17.30;;;;;;;1.12;86.41;100230.87;1712594;83;27541;-85
2021/01/08 05:01:41;;;;;;;27.07;15.28;;;;;;;1.11;86.45;100231.35;1715983;81;25907;-85
2021/01/08 05:04:09;;;;;;;35.92;17.27;;;;;;;1.09;86.43;100234.61;1701208;82;25872;-85
2021/01/08 05:06:36;;;;;;;33.78;17.37;;;;;;;1.07;86.39;100239.70;1680958;81;25832;-85
2021/01/08 05:09:04;;;;;;;33.48;15.15;;;;;;;1.07;86.44;100243.66;1687923;82;25805;-85
2021/01/08 05:11:31;;;;;;;31.17;15.53;;;;;;;1.05;86.41;100241.13;1697040;81;26731;-85
2021/01/08 05:14:02;;;;;;;32.85;17.70;;;;;;;1.04;86.36;100244.75;1733691;81;25886;-85
2021/01/08 05:16:31;;;;;;;32.98;18.40;;;;;;;1.03;86.30;100243.55;1700994;81;25850;-84
2021/01/08 05:19:04;;;;;;;31.30;17.50;;;;;;;1.02;86.42;100245.85;1724427;81;25906;-84
2021/01/08 05:21:33;;;;;;;36.00;19.17;;;;;;;1.03;86.50;100243.55;1718563;81;25855;-85
2021/01/08 05:24:03;;;;;;;36.85;19.27;;;;;;;1.04;86.47;100251.34;1740489;80;27587;-86
2021/01/08 05:26:30;;;;;;;39.83;19.80;;;;;;;1.05;86.44;100245.09;1677148;81;25838;-85
2021/01/08 05:29:01;;;;;;;43.45;22.75;;;;;;;1.05;86.42;100247.72;1740527;82;25853;-86
2021/01/08 05:31:32;;;;;;;43.85;21.68;;;;;;;1.07;86.39;100247.10;1726434;81;26017;-85
2021/01/08 05:34:00;;;;;;;35.65;19.77;;;;;;;1.09;86.43;100241.72;1748656;81;25863;-85
2021/01/08 05:36:28;;;;;;;33.45;17.75;;;;;;;1.10;86.31;100244.69;1703083;81;27711;-86
2021/01/08 05:38:59;;;;;;;36.88;20.37;;;;;;;1.11;86.29;100251.64;1708311;81;26411;-85
2021/01/08 05:41:30;;;;;;;41.00;22.90;;;;;;;1.10;86.17;100251.28;1728152;80;26398;-84
2021/01/08 05:44:00;;;;;;;36.15;19.05;;;;;;;1.07;86.16;100260.29;1739116;81;26561;-84
2021/01/08 05:46:31;;;;;;;40.20;21.60;;;;;;;1.06;86.22;100257.31;1702087;80;25996;-85
2021/01/08 05:49:00;;;;;;;;;;;;;;;1.07;86.24;100256.33;1742266;80;27514;-85
2021/01/08 05:51:36;;;;;;;34.40;17.67;;;;;;;1.08;86.25;100257.17;1743810;81;25925;-85
2021/01/08 05:54:04;;;;;;;40.10;21.15;;;;;;;1.06;86.33;100261.27;1732969;81;25794;-86
2021/01/08 05:56:37;;;;;;;43.87;22.05;;;;;;;1.04;86.19;100264.53;1706937;81;25834;-86
2021/01/08 05:59:07;;;;;;;40.20;21.05;;;;;;;1.04;86.33;100266.33;1747671;80;25910;-86
2021/01/08 06:01:38;;;;;;;38.88;20.88;;;;;;;1.06;86.36;100270.50;1745915;81;27395;-85
2021/01/08 06:04:09;;;;;;;38.30;20.23;;;;;;;1.06;86.19;100270.98;1699179;81;26405;-85
2021/01/08 06:06:44;;;;;;;39.65;20.30;;;;;;;1.05;86.15;100271.97;1694268;81;25397;-86
2021/01/08 06:09:15;;;;;;;41.83;21.70;;;;;;;1.04;86.22;100279.52;1715711;81;25880;-86
2021/01/08 06:11:45;;;;;;;40.40;20.48;;;;;;;1.07;86.31;100280.58;1714291;81;26080;-86
2021/01/08 06:14:15;;;;;;;42.98;22.60;;;;;;;1.08;86.24;100281.75;1710881;82;27529;-86
2021/01/08 06:16:47;;;;;;;43.70;21.80;;;;;;;1.08;86.17;100280.91;1677301;82;26423;-86
2021/01/08 06:19:16;;;;;;;36.45;19.70;;;;;;;1.07;86.16;100273.48;1704080;81;25838;-85
2021/01/08 06:21:47;;;;;;;37.67;18.95;;;;;;;1.07;86.16;100278.75;1738964;81;32613;-86
2021/01/08 06:24:25;;;;;;;38.42;18.73;;;;;;;1.05;86.02;100285.97;1723835;81;26173;-86
2021/01/08 06:26:53;;;;;;;42.30;21.50;;;;;;;1.04;86.05;100283.47;1722530;81;27541;-85
2021/01/08 06:29:24;;;;;;;40.65;21.68;;;;;;;1.01;86.11;100285.05;1756457;80;25845;-85
2021/01/08 06:31:52;;;;;;;;;;;;;;;1.02;86.14;100290.69;1705687;82;25889;-85
2021/01/08 06:34:25;;;;;;;41.02;19.98;;;;;;;1.02;86.09;100292.00;1707958;81;25805;-86
2021/01/08 06:37:10;;;;;;;42.15;21.37;;;;;;;1.01;86.19;100294.27;1713558;81;25645;-86
2021/01/08 06:39:41;;;;;;;42.50;21.27;;;;;;;1.01;86.15;100292.95;1716008;81;27339;-87
2021/01/08 06:42:11;;;;;;;43.33;22.87;;;;;;;1.01;86.13;100297.75;1692174;81;25793;-85
2021/01/08 06:44:39;;;;;;;42.17;21.40;;;;;;;1.01;86.08;100300.39;1678154;81;25549;-85
2021/01/08 06:47:06;;;;;;;36.13;21.27;;;;;;;1.01;86.04;100299.07;1721308;80;25719;-86
2021/01/08 06:49:37;;;;;;;38.88;19.80;;;;;;;1.02;86.15;100307.34;1715348;81;25794;-85
2021/01/08 06:52:05;;;;;;;40.67;23.65;;;;;;;1.03;86.12;100297.61;1755004;80;27526;-85
2021/01/08 06:54:36;;;;;;;42.98;21.90;;;;;;;1.02;85.98;100303.39;1705515;81;25863;-86
2021/01/08 06:57:03;;;;;;;37.35;22.00;;;;;;;1.01;86.04;100307.45;1723666;81;25851;-86
2021/01/08 06:59:33;;;;;;;43.52;22.00;;;;;;;1.03;86.18;100311.64;1706355;81;26470;-86
2021/01/08 07:02:11;;;;;;;39.35;21.10;;;;;;;1.04;86.08;100306.73;1747034;81;26342;-85
2021/01/08 07:04:40;;;;;;;42.48;22.22;;;;;;;1.05;86.05;100307.06;1721712;81;28378;-85
2021/01/08 07:07:14;;;;;;;42.73;22.65;;;;;;;1.05;86.02;100308.89;1704606;80;26069;-86
2021/01/08 07:09:41;;;;;;;41.63;22.22;;;;;;;1.03;85.93;100314.27;1749997;81;26210;-86
2021/01/08 07:12:11;;;;;;;39.38;22.10;;;;;;;1.05;85.96;100316.30;1739081;81;25749;-85
2021/01/08 07:14:39;;;;;;;42.60;22.27;;;;;;;1.05;85.99;100314.16;1672324;81;25659;-85
2021/01/08 07:17:12;;;;;;;44.33;21.77;;;;;;;1.08;85.91;100315.20;1701453;81;27422;-86
2021/01/08 07:19:43;;;;;;;41.18;21.65;;;;;;;1.06;85.92;100314.02;1716738;81;25804;-84
2021/01/08 07:22:20;;;;;;;42.55;21.65;;;;;;;1.06;86.08;100314.50;1742223;81;25787;-88
2021/01/08 07:24:48;;;;;;;40.52;21.75;;;;;;;1.09;86.10;100324.80;1725930;80;25615;-88
2021/01/08 07:27:24;;;;;;;56.28;30.00;;;;;;;1.08;85.97;100319.16;1721254;81;25730;-88
2021/01/08 07:30:03;;;;;;;47.98;26.05;;;;;;;1.11;86.15;100326.30;1721096;81;27434;-87
2021/01/08 07:32:47;;;;;;;79.62;42.17;;;;;;;1.14;86.00;100324.73;1723480;81;26129;-87
2021/01/08 07:35:21;;;;;;;54.65;32.48;;;;;;;1.15;86.06;100329.53;1753171;80;25907;-85
2021/01/08 07:38:07;;;;;;;50.78;30.23;;;;;;;1.18;85.99;100337.16;1723940;81;25842;-85
2021/01/08 07:40:38;;;;;;;46.42;26.33;;;;;;;1.17;85.91;100335.03;1717333;81;25928;-85
2021/01/08 07:43:09;;;;;;;50.83;27.10;;;;;;;1.17;85.89;100343.42;1768440;80;27522;-85
2021/01/08 07:45:56;;;;;;;47.20;25.48;;;;;;;1.17;85.98;100344.74;1690827;81;26079;-85
2021/01/08 07:48:38;;;;;;;43.63;22.45;;;;;;;1.20;85.95;100341.81;1729486;81;25605;-84
2021/01/08 07:51:10;;;;;;;47.75;24.60;;;;;;;1.19;85.75;100346.28;1736694;80;25844;-85
2021/01/08 07:53:46;;;;;;;48.30;25.65;;;;;;;1.16;85.80;100348.33;1746146;81;25880;-85
2021/01/08 07:56:24;;;;;;;46.20;27.15;;;;;;;1.14;85.86;100349.80;1711418;80;27455;-84
2021/01/08 07:59:00;;;;;;;47.13;26.05;;;;;;;1.16;85.85;100350.97;1707029;83;25992;-85
2021/01/08 08:01:29;;;;;;;45.43;24.95;;;;;;;1.16;85.92;100357.09;1727327;81;25417;-84
2021/01/08 08:04:02;;;;;;;44.10;25.43;;;;;;;1.15;85.88;100348.84;1712281;80;25910;-85
2021/01/08 08:06:32;;;;;;;47.60;24.75;;;;;;;1.17;85.88;100357.93;1748902;80;26210;-85
2021/01/08 08:09:06;;;;;;;45.65;24.82;;;;;;;1.18;85.90;100360.91;1716402;80;32677;-86
2021/01/08 08:11:36;;;;;;;49.40;25.55;;;;;;;1.18;85.87;100360.42;1745797;80;25626;-85
2021/01/08 08:14:14;;;;;;;47.78;26.15;;;;;;;1.17;85.75;100360.57;1765630;79;25424;-84
2021/01/08 08:16:42;;;;;;;44.93;24.47;;;;;;;1.16;85.94;100361.05;1747883;80;26067;-84
2021/01/08 08:19:14;;;;;;;50.17;25.80;;;;;;;1.21;85.80;100359.33;1679175;82;25989;-83
2021/01/08 08:21:52;;;;;;;47.65;24.67;;;;;;;1.23;85.93;100362.19;1714346;81;27533;-84
2021/01/08 08:24:19;;;;;;;44.55;24.75;;;;;;;1.25;85.81;100366.01;1711213;81;25914;-84
2021/01/08 08:26:49;;;;;;;47.25;25.57;;;;;;;1.27;85.87;100370.19;1714171;81;26303;-84
2021/01/08 08:29:18;;;;;;;47.20;27.62;;;;;;;1.30;85.75;100373.05;1716816;81;25815;-84
2021/01/08 08:31:51;;;;;;;48.30;27.73;;;;;;;1.33;85.82;100373.61;1688540;81;25865;-84
2021/01/08 08:34:31;;;;;;;50.50;26.75;;;;;;;1.37;85.81;100382.08;1715795;82;27272;-83
2021/01/08 08:37:10;;;;;;;48.85;28.38;;;;;;;1.38;85.59;100377.17;1750383;81;26092;-83
2021/01/08 08:39:40;;;;;;;58.30;28.90;;;;;;;1.39;85.68;100372.26;1694421;81;25409;-83
2021/01/08 08:42:11;;;;;;;54.53;29.30;;;;;;;1.43;85.67;100385.02;1700550;81;26364;-84
2021/01/08 08:44:42;;;;;;;62.78;32.23;;;;;;;1.43;85.56;100380.25;1709145;81;25959;-83
2021/01/08 08:47:11;;;;;;;47.33;27.15;;;;;;;1.45;85.65;100376.48;1738227;81;27526;-83
2021/01/08 08:49:40;;;;;;;59.90;30.88;;;;;;;1.50;85.55;100376.93;1691452;81;25849;-84
2021/01/08 08:52:08;;;;;;;58.60;31.85;;;;;;;1.52;85.65;100372.83;1712035;80;25660;-85
2021/01/08 08:54:39;;;;;;;77.72;42.80;;;;;;;1.56;85.54;100367.66;1719375;81;26462;-84
2021/01/08 08:57:09;;;;;;;56.65;29.55;;;;;;;1.59;85.62;100371.33;1742264;81;25829;-85
2021/01/08 08:59:40;;;;;;;;;;;;;;;1.61;85.38;100365.42;1685630;81;27594;-85
2021/01/08 09:02:16;;;;;;;47.85;26.17;;;;;;;1.58;85.34;100363.88;1717114;81;25938;-84
2021/01/08 09:04:56;;;;;;;48.48;25.48;;;;;;;1.58;85.56;100365.20;1712802;81;25466;-85
2021/01/08 09:07:34;;;;;;;46.05;25.97;;;;;;;1.63;85.53;100360.84;1728771;81;25756;-86
2021/01/08 09:10:08;;;;;;;47.73;26.57;;;;;;;1.67;85.51;100365.39;1742355;81;25739;-89
2021/01/08 09:12:41;;;;;;;46.13;25.55;;;;;;;1.69;85.40;100361.61;1738271;81;27665;-83
2021/01/08 09:15:17;;;;;;;47.08;25.50;;;;;;;1.71;85.21;100358.86;1707662;81;25840;-81
2021/01/08 09:17:48;;;;;;;42.48;24.52;;;;;;;1.69;85.04;100356.33;1738145;81;25763;-85
2021/01/08 09:20:18;;;;;;;49.83;26.00;;;;;;;1.69;85.10;100355.02;1767945;81;25677;-89
2021/01/08 09:22:46;;;;;;;46.57;25.70;;;;;;;1.71;85.15;100357.03;1721196;82;25435;-88
2021/01/08 09:25:16;;;;;;;43.15;23.95;;;;;;;1.72;84.87;100357.39;1729634;81;28211;-82
2021/01/08 09:27:44;;;;;;;45.45;24.65;;;;;;;1.72;85.01;100362.67;1726444;82;26551;-81
2021/01/08 09:30:12;;;;;;;43.95;24.67;;;;;;;1.74;84.82;100362.53;1731718;81;25904;-83
2021/01/08 09:32:40;;;;;;;44.90;23.65;;;;;;;1.76;84.79;100360.59;1703293;81;26219;-82
2021/01/08 09:35:09;;;;;;;37.90;21.50;;;;;;;1.79;84.84;100359.84;1706596;81;25779;-82
2021/01/08 09:37:44;;;;;;;47.60;25.48;;;;;;;1.79;84.45;100355.89;1700261;81;27587;-82
2021/01/08 09:40:15;;;;;;;41.58;23.50;;;;;;;1.75;84.42;100353.17;1721529;80;25939;-83
2021/01/08 09:42:45;;;;;;;47.50;26.33;;;;;;;1.76;84.41;100350.02;1739847;80;25432;-83
2021/01/08 09:45:22;;;;;;;47.62;26.05;;;;;;;1.77;84.48;100351.70;1731217;82;25840;-81
2021/01/08 09:47:50;;;;;;;47.75;24.98;;;;;;;1.77;84.30;100350.39;1714119;81;25736;-82
2021/01/08 09:50:28;;;;;;;43.17;25.72;;;;;;;1.79;84.56;100343.16;1725781;80;27536;-82
2021/01/08 09:52:59;;;;;;;42.67;23.80;;;;;;;1.82;84.51;100348.99;1703010;82;25837;-82
2021/01/08 09:55:30;;;;;;;42.20;24.82;;;;;;;1.85;84.39;100342.61;1735653;80;25879;-82
2021/01/08 09:58:00;;;;;;;44.08;23.55;;;;;;;1.82;84.05;100339.75;1750512;80;26450;-82
2021/01/08 10:00:35;;;;;;;42.80;24.67;;;;;;;1.82;84.21;100341.58;1754129;80;26081;-82
2021/01/08 10:03:08;;;;;;;48.83;24.75;;;;;;;1.82;84.35;100339.75;1753101;80;27599;-82
2021/01/08 10:05:36;;;;;;;46.08;25.12;;;;;;;1.85;84.42;100342.61;1729233;81;25761;-83
2021/01/08 10:08:04;;;;;;;47.00;25.15;;;;;;;1.88;84.34;100341.03;1729952;81;25848;-82
2021/01/08 10:10:40;;;;;;;50.67;25.57;;;;;;;1.91;84.45;100338.09;1706487;81;27061;-83
2021/01/08 10:13:17;;;;;;;46.68;25.02;;;;;;;1.97;84.38;100333.57;1724962;81;25800;-82
2021/01/08 10:15:48;;;;;;;45.65;25.00;;;;;;;1.97;84.09;100332.25;1723995;81;27392;-82
2021/01/08 10:18:24;;;;;;;47.83;25.15;;;;;;;1.98;84.05;100335.25;1711271;81;35470;-83
2021/01/08 10:20:55;;;;;;;44.27;24.12;;;;;;;2.00;83.90;100338.11;1750551;79;25862;-81
2021/01/08 10:23:26;;;;;;;50.15;27.98;;;;;;;1.97;83.92;100334.41;1734535;81;25798;-82
2021/01/08 10:26:09;;;;;;;49.18;25.45;;;;;;;2.00;84.02;100334.63;1727129;81;25873;-83
2021/01/08 10:28:48;;;;;;;59.80;32.90;;;;;;;2.02;83.96;100334.84;1704807;81;28494;-82
2021/01/08 10:31:17;;;;;;;66.77;36.53;;;;;;;2.06;84.11;100330.95;1701100;80;25924;-81
2021/01/08 10:33:44;;;;;;;51.33;28.30;;;;;;;2.12;83.70;100333.50;1734289;81;25768;-83
2021/01/08 10:36:12;;;;;;;53.60;30.50;;;;;;;2.12;83.72;100334.34;1724565;81;25833;-84
2021/01/08 10:38:39;;;;;;;46.30;24.57;;;;;;;2.15;83.86;100334.08;1728793;79;25866;-83
2021/01/08 10:41:07;;;;;;;47.48;25.80;;;;;;;2.17;83.46;100329.97;1730520;81;27534;-83
2021/01/08 10:43:34;;;;;;;42.88;23.20;;;;;;;2.15;83.42;100330.12;1754183;80;26531;-83
2021/01/08 10:46:03;;;;;;;49.10;25.25;;;;;;;2.15;83.29;100330.59;1750530;80;26065;-81
2021/01/08 10:48:31;;;;;;;48.48;28.12;;;;;;;2.14;83.47;100332.40;1698012;80;25872;-84
2021/01/08 10:50:58;;;;;;;46.08;26.07;;;;;;;2.16;83.43;100328.32;1718361;82;26245;-82
2021/01/08 10:53:26;;;;;;;44.03;22.55;;;;;;;2.19;83.34;100328.02;1747783;80;27758;-83
2021/01/08 10:55:53;;;;;;;43.38;23.18;;;;;;;2.19;83.25;100326.70;1731621;81;25838;-83
2021/01/08 10:58:21;;;;;;;46.50;23.90;;;;;;;2.17;83.11;100318.92;1702966;80;25442;-82
2021/01/08 11:00:48;;;;;;;43.83;23.02;;;;;;;2.16;82.97;100325.16;1702613;82;26416;-82
2021/01/08 11:03:16;;;;;;;46.75;26.77;;;;;;;2.17;83.08;100318.08;1727817;82;25780;-82
2021/01/08 11:05:43;;;;;;;46.83;27.20;;;;;;;2.18;83.27;100319.77;1691950;82;27330;-81
2021/01/08 11:08:11;;;;;;;60.10;32.67;;;;;;;2.17;82.99;100312.31;1701670;82;25842;-82
2021/01/08 11:10:39;;;;;;;50.63;29.80;;;;;;;2.20;83.11;100323.09;1685610;83;25922;-82
2021/01/08 11:13:07;;;;;;;59.93;33.35;;;;;;;2.23;83.21;100321.00;1677730;83;26479;-82
2021/01/08 11:15:36;;;;;;;47.03;24.05;;;;;;;2.28;83.13;100313.49;1667471;83;26643;-83
2021/01/08 11:18:04;;;;;;;48.28;28.57;;;;;;;2.28;82.47;100316.62;1684501;83;28447;-82
2021/01/08 11:20:31;;;;;;;47.88;24.57;;;;;;;2.26;82.74;100318.56;1670577;83;25814;-82
2021/01/08 11:23:04;;;;;;;42.60;24.87;;;;;;;2.27;82.70;100320.22;1693180;83;26447;-82
2021/01/08 11:25:32;;;;;;;49.42;25.95;;;;;;;2.24;82.71;100316.08;1699288;82;25819;-81
2021/01/08 11:27:59;;;;;;;47.08;27.13;;;;;;;2.29;82.96;100320.91;1693138;82;25884;-81
2021/01/08 11:30:26;;;;;;;47.62;24.92;;;;;;;2.32;82.74;100316.67;1685762;82;26792;-82